Relevés horaires Antwerpen / Deurne (Belgique)


Relevés horaires à Antwerpen / Deurne - Mardi 19 Nov. 2019
Heure UTC1 Température [°C] Vent [km/h] Hum. [%] Pres.4 [hPa] Visi. [Km] Nébu. [octa] Préc.5 [mm] Cond.
2m. Res. Ros. Dir.2 Vit. Moy. Raf.3
23:00 -1.2 -1.2 -2.1 E 1.9 1.9 3.7 94 1019.8(0.4/3h) -- 0/8 -- --
22:00 -0.4 -0.4 -1.6 ESE 1.9 1.9 3.7 92 1019.7(0.5/3h) 6 0/8 -- --
21:00 -0.4 -0.4 -1.2 SSE 1.9 3.7 5.6 94 1019.6(0.7/3h) 10 0/8 -- --
20:00 1.4 1.4 -0.3 SE 1.9 1.9 3.7 88 1019.4(0.7/3h) 15 2/8 -- --
19:00 4.2 4.2 0.1 SSO 1.9 3.7 5.6 75 1019.2(0.7/3h) 30 0/8 -- --
18:00 5.2 5.2 0.8 SO 3.7 9.3 14.8 73 1018.9(0.8/3h) 35 5/8 0/12h
--
17:00 6.3 6.3 0.9 SO 3.7 3.7 7.4 68 1018.7(0.9/3h) 35 5/8 -- --
16:00 7.2 7.2 0.9 SO 3.7 5.6 9.3 64 1018.4(0.6/3h) 35 5/8 -- --
15:00 7.5 6.7 0.3 O 5.6 9.3 14.8 60 1018(-0.2/3h) 35 1/8 -- --
14:00 8.3 6.7 1.6 O 9.3 9.3 14.8 63 1017.8(0.2/3h) 35 1/8 -- --
13:00 8.1 6.9 2.1 OSO 7.4 9.3 11.1 66 1017.8(0.2/3h) 35 2/8 -- --
12:00 7.3 5.5 2.6 SO 9.3 9.3 11.1 72 1017.9(0.8/3h) 35 1/8 0/6h
Etat du ciel inchangé
11:00 7.2 6.4 2.6 OSO 5.6 7.4 11.1 73 1018(1.6/3h) 35 5/8 -- --
10:00 6.4 5.5 2.9 O 5.6 5.6 9.3 78 1017.6(1.4/3h) 35 3/8 -- --
09:00 5.3 3.6 2.3 OSO 7.4 7.4 11.1 81 1017(1.3/3h) 35 1/8 -- --
08:00 4.1 2.8 2.4 OSO 5.6 7.4 11.1 89 1016.4(1.1/3h) 35 1/8 -- --
07:00 4.3 2.5 2.4 OSO 7.4 7.4 11.1 87 1016.2(1.6/3h) 35 3/8 -- --
06:00 4.7 3.5 2.6 OSO 5.6 11.1 18.5 86 1015.7(1.1/3h) 35 6/8 0.4/12h
Il y a eu une averse de pluie à la station au cours de l'heure précédente, mais il n'y en a pas au moment de l'observation
05:00 4.6 3.4 2.2 SO 5.6 11.1 18.5 84 1015.3(0.8/3h) 35 2/8 -- --
04:00 5.4 2.9 2.3 O 11.1 11.1 18.5 80 1014.6(0.5/3h) 19 7/8 -- --
03:00 5.1 3.4 2.5 OSO 7.4 7.4 11.1 83 1014.6(0.6/3h) 30 0/8 -- --
02:00 5.6 4 1.7 OSO 7.4 7.4 11.1 76 1014.5(1.0/3h) 45 7/8 -- --
01:00 6.2 4.7 1.9 O 7.4 7.4 11.1 74 1014.1(1.2/3h) 40 8/8 -- --
00:00 6.1 5.1 2.4 O 5.6 13.0 18.5 77 1014(1.6/3h) 30 6/8 0.3/6h
3.2/24h
Ciel clair

1 Coordinated Universal Time. Actuellement il est 04:00 locale et 03:00 UTC.

2 Le vent souffle depuis la direction indiquée vers la direction oposée.

3 Les rafales max. sont disponible 40 min après l'heure du relevé.

4 Pour les stations d'altitude (plus de 600m) le géopotentiel du niveau le plus proche de la pression obligatoire est indiqué.

5 Les stations disposant d'un diffuseur peuvent indiquer "trace". Cela signifie que des précipitations ont touchés le sol mais que la quantité est inférieure à 0.1 mm.

Récapitulatif de la journée
Température [°C] Vent [km/h] Ensoleillement4 [h] Precipitations totale5 [mm] Pression [Hpa]
Min1 Max.2 Moy.3 Max. Min Max.
4.5 8.6 7.2 18.5 0 h 0 min 0 1014.0 1019.8

1 Température minimale relevée entre 18:00 UTC la veille et 18:00 UTC le jour donné.

2 Température maximale relevée entre 06:00 UTC le jour donné et 06:00 UTC le lendemain.

3 Vent moyen de la journée basé sur les relevés horaires.

4 Ensoleillement en heures relevé entre 06:00 UTC la veille et 06:00 UTC le jour donné.

5 Précipitations totales tombées entre 06:00 UTC la jour donné et 06:00 UTC le lendemain.

Graphiques horaires